aviador You're here:

KCEW Decoded Metar

CRESTVIEW in FL, USA
Report Time2017-09-24 22:53:00
UTC Time2017-09-24 23:07:35
Flight Rules vfr VFR
Wind120° at 04 kt
W.Decomp.*RWY 17: 2.6 kt HW 3.1 kt LCW
W.Rank120° ranks 30
Current wind is below 120° avg. (5.6)
Visibility9656 m
Phenomena:Light Rain
Mist
Clouds:Few 110 Hf
Expected CloudBase > 400 ft AGL from Temp-Dew spread
CeilingNone
Temp24°C (ISA +9)
Dew Point23°C (94% RH)
QNH1014 hPa
Density Alt1,601 ft
Elevation180 ft
Report Wrong Elevation
Raw Report
KCEW 242253Z AUTO 12004KT 6SM -RA BR FEW110 24/23 A2994 RMK AO2
SLP137 P0001 T02440233=

Extra information for KCEW:More info

Metar Taf Metar & Taf Last 4 Metars F.Rules Stats Wind Profile Meteogram Temp Stats Airport Information Weather charts Add Link Nearby VenuesMetar ALERT Operation Metar Decoded Social comments

AIRNAV info for KCEW